createdAt,value
2018-05-23T00:00:42.126Z,41.75
2018-05-23T00:01:42.151Z,42.03
2018-05-23T00:02:42.167Z,41.84
2018-05-23T00:03:42.191Z,41.75
2018-05-23T00:04:42.211Z,41.55
2018-05-23T00:05:42.236Z,41.94
2018-05-23T00:06:42.254Z,41.55
2018-05-23T00:07:42.278Z,41.55
2018-05-23T00:08:42.300Z,42.61
2018-05-23T00:09:42.318Z,42.03
2018-05-23T00:10:42.348Z,41.94
2018-05-23T00:11:42.362Z,41.94
2018-05-23T00:12:42.385Z,42.23
2018-05-23T00:13:42.407Z,41.84
2018-05-23T00:14:42.427Z,42.03
2018-05-23T00:15:42.453Z,41.94
2018-05-23T00:16:42.470Z,41.94
2018-05-23T00:17:42.495Z,41.94
2018-05-23T00:18:42.511Z,42.32
2018-05-23T00:19:42.534Z,42.32
2018-05-23T00:20:42.559Z,42.61
2018-05-23T00:21:42.587Z,42.52
2018-05-23T00:22:42.601Z,42.61
2018-05-23T00:23:42.623Z,42.52
2018-05-23T00:24:42.642Z,42.61
2018-05-23T00:25:42.669Z,42.52
2018-05-23T00:26:42.685Z,42.52
2018-05-23T00:27:42.709Z,42.52
2018-05-23T00:28:42.738Z,42.49
2018-05-23T00:29:42.750Z,42.30
2018-05-23T00:30:42.779Z,42.52
2018-05-23T00:31:42.790Z,42.59
2018-05-23T00:32:42.820Z,42.61
2018-05-23T00:33:42.839Z,42.32
2018-05-23T00:34:42.858Z,42.32
2018-05-23T00:35:42.883Z,42.40
2018-05-23T00:36:42.901Z,42.40
2018-05-23T00:37:42.923Z,42.52
2018-05-23T00:38:42.942Z,42.32
2018-05-23T00:39:42.965Z,42.49
2018-05-23T00:40:42.987Z,42.49
2018-05-23T00:41:43.010Z,42.40
2018-05-23T00:42:43.030Z,42.49
2018-05-23T00:43:43.053Z,42.40
2018-05-23T00:44:43.069Z,42.40
2018-05-23T00:45:43.096Z,42.40
2018-05-23T00:46:43.117Z,42.30
2018-05-23T00:47:43.137Z,42.30
2018-05-23T00:48:43.168Z,42.40
2018-05-23T00:49:43.180Z,42.49
2018-05-23T00:50:43.199Z,42.49
2018-05-23T00:51:43.221Z,42.30
2018-05-23T00:52:43.247Z,42.59
2018-05-23T00:53:43.267Z,42.40
2018-05-23T00:54:43.288Z,42.30
2018-05-23T00:55:43.305Z,42.40
2018-05-23T00:56:43.333Z,42.40
2018-05-23T00:57:43.355Z,42.40
2018-05-23T00:58:43.374Z,42.40
2018-05-23T00:59:43.392Z,42.40
2018-05-23T01:00:43.419Z,42.30
2018-05-23T01:01:43.444Z,42.40
2018-05-23T01:02:43.460Z,42.30
2018-05-23T01:03:43.482Z,42.21
2018-05-23T01:04:43.499Z,42.30
2018-05-23T01:05:43.529Z,42.21
2018-05-23T01:06:43.544Z,42.30
2018-05-23T01:07:43.570Z,42.49
2018-05-23T01:08:43.588Z,42.40
2018-05-23T01:09:43.609Z,42.49
2018-05-23T01:10:43.630Z,42.30
2018-05-23T01:11:43.652Z,42.40
2018-05-23T01:12:43.673Z,42.30
2018-05-23T01:13:43.694Z,42.30
2018-05-23T01:14:43.717Z,42.40
2018-05-23T01:15:43.742Z,42.49
2018-05-23T01:16:43.757Z,42.49
2018-05-23T01:17:43.775Z,42.40
2018-05-23T01:18:43.800Z,42.49
2018-05-23T01:19:43.822Z,42.49
2018-05-23T01:20:43.845Z,42.30
2018-05-23T01:21:43.866Z,42.30
2018-05-23T01:22:43.885Z,42.49
2018-05-23T01:23:43.905Z,42.49
2018-05-23T01:24:43.929Z,42.30
2018-05-23T01:25:43.959Z,42.40
2018-05-23T01:26:43.970Z,42.49
2018-05-23T01:27:43.999Z,42.30
2018-05-23T01:28:44.021Z,42.49
2018-05-23T01:29:44.036Z,42.59
2018-05-23T01:30:44.056Z,42.49
2018-05-23T01:31:44.078Z,42.30
2018-05-23T01:32:44.102Z,42.59
2018-05-23T01:33:44.126Z,42.40
2018-05-23T01:34:44.142Z,42.49
2018-05-23T01:35:44.163Z,42.11
2018-05-23T01:36:44.196Z,42.59
2018-05-23T01:37:44.212Z,42.40
2018-05-23T01:38:44.231Z,42.49
2018-05-23T01:39:44.249Z,42.59
2018-05-23T01:40:44.272Z,42.40
2018-05-23T01:41:44.292Z,42.59
2018-05-23T01:42:44.318Z,42.49
2018-05-23T01:43:44.336Z,42.49
2018-05-23T01:44:44.358Z,42.49
2018-05-23T01:45:44.385Z,42.59
2018-05-23T01:46:44.401Z,42.49
2018-05-23T01:47:44.423Z,42.49
2018-05-23T01:48:44.443Z,42.40
2018-05-23T01:49:44.465Z,42.59
2018-05-23T01:50:44.487Z,42.49
2018-05-23T01:51:44.508Z,42.40
2018-05-23T01:52:44.608Z,42.40
2018-05-23T01:53:44.550Z,42.30
2018-05-23T01:54:44.570Z,42.30
2018-05-23T01:55:44.593Z,42.59
2018-05-23T01:56:44.615Z,42.49
2018-05-23T01:57:44.636Z,42.40
2018-05-23T01:58:44.658Z,42.69
2018-05-23T01:59:44.676Z,42.69
2018-05-23T02:00:44.701Z,42.30
2018-05-23T02:01:44.722Z,42.40
2018-05-23T02:02:44.745Z,42.11
2018-05-23T02:03:44.764Z,42.30
2018-05-23T02:04:44.787Z,42.30
2018-05-23T02:05:44.808Z,41.92
2018-05-23T02:06:44.828Z,41.92
2018-05-23T02:07:44.851Z,42.02
2018-05-23T02:08:44.870Z,42.40
2018-05-23T02:09:44.897Z,42.40
2018-05-23T02:10:44.914Z,42.49
2018-05-23T02:11:44.935Z,42.40
2018-05-23T02:12:44.956Z,42.40
2018-05-23T02:13:44.978Z,42.30
2018-05-23T02:14:45.001Z,41.82
2018-05-23T02:15:45.021Z,42.21
2018-05-23T02:16:45.041Z,41.92
2018-05-23T02:17:45.063Z,41.82
2018-05-23T02:18:45.082Z,42.69
2018-05-23T02:19:45.106Z,41.92
2018-05-23T02:20:45.127Z,42.02
2018-05-23T02:21:45.148Z,41.92
2018-05-23T02:22:45.170Z,42.21
2018-05-23T02:23:45.191Z,41.63
2018-05-23T02:24:45.213Z,41.82
2018-05-23T02:25:45.234Z,41.63
2018-05-23T02:26:45.255Z,41.53
2018-05-23T02:27:45.276Z,41.53
2018-05-23T02:28:45.303Z,41.63
2018-05-23T02:29:45.319Z,41.53
2018-05-23T02:30:45.341Z,41.82
2018-05-23T02:31:45.363Z,41.82
2018-05-23T02:32:45.381Z,42.40
2018-05-23T02:33:45.403Z,41.82
2018-05-23T02:34:45.523Z,42.40
2018-05-23T02:35:45.451Z,41.82
2018-05-23T02:36:45.467Z,41.63
2018-05-23T02:37:45.491Z,42.40
2018-05-23T02:38:45.510Z,42.02
2018-05-23T02:39:45.535Z,41.82
2018-05-23T02:40:45.552Z,42.11
2018-05-23T02:41:45.576Z,41.72
2018-05-23T02:42:45.596Z,42.02
2018-05-23T02:43:45.617Z,42.02
2018-05-23T02:44:45.640Z,42.11
2018-05-23T02:45:45.665Z,41.92
2018-05-23T02:46:45.683Z,42.21
2018-05-23T02:47:45.704Z,42.11
2018-05-23T02:48:45.727Z,41.92
2018-05-23T02:49:45.746Z,42.11
2018-05-23T02:50:45.766Z,42.02
2018-05-23T02:51:45.789Z,41.92
2018-05-23T02:52:45.814Z,42.21
2018-05-23T02:53:45.834Z,41.92
2018-05-23T02:54:45.850Z,41.82
2018-05-23T02:55:45.874Z,42.02
2018-05-23T02:56:45.897Z,41.63
2018-05-23T02:57:45.917Z,42.11
2018-05-23T02:58:45.939Z,41.82
2018-05-23T02:59:45.965Z,42.02
2018-05-23T03:00:45.979Z,42.40
2018-05-23T03:01:46.010Z,42.40
2018-05-23T03:02:46.027Z,41.82
2018-05-23T03:03:46.042Z,41.82
2018-05-23T03:04:46.072Z,41.72
2018-05-23T03:05:46.088Z,41.63
2018-05-23T03:06:46.107Z,41.72
2018-05-23T03:07:46.128Z,41.53
2018-05-23T03:08:46.151Z,41.63
2018-05-23T03:09:46.177Z,41.63
2018-05-23T03:10:46.192Z,41.63
2018-05-23T03:11:46.217Z,41.63
2018-05-23T03:12:46.236Z,41.53
2018-05-23T03:13:46.260Z,41.63
2018-05-23T03:14:46.281Z,41.53
2018-05-23T03:15:46.300Z,41.44
2018-05-23T03:16:46.324Z,41.44
2018-05-23T03:17:46.342Z,41.24
2018-05-23T03:18:46.367Z,41.24
2018-05-23T03:19:46.386Z,41.36
2018-05-23T03:20:46.406Z,41.46
2018-05-23T03:21:46.431Z,41.36
2018-05-23T03:22:46.447Z,41.55
2018-05-23T03:23:46.471Z,41.46
2018-05-23T03:24:46.494Z,41.75
2018-05-23T03:25:46.513Z,41.55
2018-05-23T03:26:46.533Z,41.07
2018-05-23T03:27:46.555Z,41.27
2018-05-23T03:28:46.578Z,41.27
2018-05-23T03:29:46.601Z,41.17
2018-05-23T03:30:46.620Z,41.17
2018-05-23T03:31:46.643Z,40.59
2018-05-23T03:32:46.662Z,40.61
2018-05-23T03:33:46.685Z,40.61
2018-05-23T03:34:46.706Z,40.12
2018-05-23T03:35:46.727Z,39.37
2018-05-23T03:36:46.748Z,39.18
2018-05-23T03:37:46.769Z,38.41
2018-05-23T03:38:46.796Z,38.31
2018-05-23T03:39:46.814Z,38.53
2018-05-23T03:40:46.833Z,38.14
2018-05-23T03:41:46.855Z,37.77
2018-05-23T03:42:46.876Z,37.29
2018-05-23T03:43:46.903Z,37.19
2018-05-23T03:44:46.925Z,37.00
2018-05-23T03:45:46.940Z,37.29
2018-05-23T03:46:46.962Z,37.75
2018-05-23T03:47:46.983Z,37.85
2018-05-23T03:48:47.014Z,38.31
2018-05-23T03:49:47.026Z,38.79
2018-05-23T03:50:47.048Z,38.99
2018-05-23T03:51:47.076Z,38.99
2018-05-23T03:52:47.096Z,39.16
2018-05-23T03:53:47.116Z,39.36
2018-05-23T03:54:47.139Z,39.74
2018-05-23T03:55:47.156Z,39.74
2018-05-23T03:56:47.179Z,39.74
2018-05-23T03:57:47.203Z,40.03
2018-05-23T03:58:47.228Z,40.22
2018-05-23T03:59:47.245Z,40.03
2018-05-23T04:00:47.266Z,39.94
2018-05-23T04:01:47.287Z,39.84
2018-05-23T04:02:47.310Z,40.12
2018-05-23T04:03:47.331Z,40.03
2018-05-23T04:04:47.433Z,39.94
2018-05-23T04:05:47.371Z,40.70
2018-05-23T04:06:47.394Z,40.61
2018-05-23T04:07:47.416Z,40.42
2018-05-23T04:08:47.436Z,40.61
2018-05-23T04:09:47.485Z,40.32
2018-05-23T04:10:47.479Z,40.12
2018-05-23T04:11:47.505Z,39.94
2018-05-23T04:12:47.529Z,40.03
2018-05-23T04:13:47.545Z,40.12
2018-05-23T04:14:47.575Z,40.22
2018-05-23T04:15:47.588Z,40.12
2018-05-23T04:16:47.614Z,39.84
2018-05-23T04:17:47.631Z,39.74
2018-05-23T04:18:47.655Z,39.86
2018-05-23T04:19:47.674Z,40.05
2018-05-23T04:20:47.696Z,39.09
2018-05-23T04:21:47.718Z,39.28
2018-05-23T04:22:47.741Z,39.28
2018-05-23T04:23:47.762Z,38.79
2018-05-23T04:24:47.796Z,38.89
2018-05-23T04:25:47.810Z,38.81
2018-05-23T04:26:47.824Z,38.43
2018-05-23T04:27:47.850Z,38.23
2018-05-23T04:28:47.871Z,38.33
2018-05-23T04:29:47.903Z,38.06
2018-05-23T04:30:47.910Z,37.96
2018-05-23T04:31:47.935Z,37.19
2018-05-23T04:32:47.955Z,37.21
2018-05-23T04:33:47.979Z,36.53
2018-05-23T04:34:48.000Z,36.36
2018-05-23T04:35:48.026Z,36.26
2018-05-23T04:36:48.043Z,35.21
2018-05-23T04:37:48.065Z,35.12
2018-05-23T04:38:48.086Z,34.07
2018-05-23T04:39:48.110Z,34.19
2018-05-23T04:40:48.131Z,33.31
2018-05-23T04:41:48.155Z,32.94
2018-05-23T04:42:48.176Z,32.17
2018-05-23T04:43:48.200Z,32.18
2018-05-23T04:44:48.222Z,31.60
2018-05-23T04:45:48.244Z,31.13
2018-05-23T04:46:48.267Z,30.84
2018-05-23T04:47:48.294Z,31.04
2018-05-23T04:48:48.339Z,30.84
2018-05-23T04:49:48.331Z,30.94
2018-05-23T04:50:48.355Z,30.84
2018-05-23T04:51:48.381Z,30.94
2018-05-23T04:52:48.399Z,31.23
2018-05-23T04:53:48.426Z,30.84
2018-05-23T04:54:48.446Z,31.04
2018-05-23T04:55:48.470Z,31.32
2018-05-23T04:56:48.490Z,31.12
2018-05-23T04:57:48.513Z,31.02
2018-05-23T04:58:48.538Z,31.50
2018-05-23T04:59:48.563Z,31.50
2018-05-23T05:00:48.581Z,31.60
2018-05-23T05:01:48.608Z,31.70
2018-05-23T05:02:48.630Z,31.70
2018-05-23T05:03:48.649Z,31.70
2018-05-23T05:04:48.677Z,31.70
2018-05-23T05:05:48.702Z,31.60
2018-05-23T05:06:48.720Z,31.60
2018-05-23T05:07:48.745Z,31.50
2018-05-23T05:08:48.772Z,31.21
2018-05-23T05:09:48.789Z,31.12
2018-05-23T05:10:48.817Z,31.31
2018-05-23T05:11:48.836Z,31.13
2018-05-23T05:12:48.860Z,30.84
2018-05-23T05:13:48.975Z,30.65
2018-05-23T05:14:48.906Z,31.13
2018-05-23T05:15:48.930Z,30.74
2018-05-23T05:16:48.953Z,30.74
2018-05-23T05:17:48.977Z,30.35
2018-05-23T05:18:48.998Z,29.88
2018-05-23T05:19:49.029Z,29.61
2018-05-23T05:20:49.046Z,29.41
2018-05-23T05:21:49.067Z,29.22
2018-05-23T05:22:49.093Z,28.94
2018-05-23T05:23:49.115Z,28.65
2018-05-23T05:24:49.208Z,28.17
2018-05-23T05:25:49.174Z,28.38
2018-05-23T05:26:49.185Z,28.18
2018-05-23T05:27:49.213Z,28.09
2018-05-23T05:28:49.233Z,27.61
2018-05-23T05:29:49.258Z,27.70
2018-05-23T05:30:49.283Z,27.61
2018-05-23T05:31:49.360Z,27.90
2018-05-23T05:32:49.326Z,27.23
2018-05-23T05:33:49.355Z,27.04
2018-05-23T05:34:49.374Z,26.65
2018-05-23T05:35:49.407Z,26.47
2018-05-23T05:36:49.428Z,25.99
2018-05-23T05:37:49.459Z,26.09
2018-05-23T05:38:49.524Z,25.81
2018-05-23T05:39:49.503Z,25.03
2018-05-23T05:40:49.525Z,24.85
2018-05-23T05:41:49.549Z,24.67
2018-05-23T05:42:49.575Z,23.80
2018-05-23T05:43:49.597Z,23.52
2018-05-23T05:44:49.634Z,22.75
2018-05-23T05:45:49.647Z,22.56
2018-05-23T05:46:49.710Z,22.27
2018-05-23T05:47:49.697Z,21.98
2018-05-23T05:48:49.721Z,21.88
2018-05-23T05:49:49.749Z,22.17
2018-05-23T05:50:49.772Z,22.07
2018-05-23T05:51:49.799Z,21.88
2018-05-23T05:52:49.825Z,21.69
2018-05-23T05:53:49.954Z,21.49
2018-05-23T05:54:49.885Z,21.69
2018-05-23T05:55:49.902Z,21.31
2018-05-23T05:56:49.929Z,20.92
2018-05-23T05:57:49.954Z,21.11
2018-05-23T05:58:49.982Z,20.63
2018-05-23T05:59:50.011Z,20.15
2018-05-23T06:00:50.036Z,19.48
2018-05-23T06:01:50.066Z,19.87
2018-05-23T06:02:50.088Z,19.67
2018-05-23T06:03:50.121Z,19.28
2018-05-23T06:04:50.136Z,18.80
2018-05-23T06:05:50.169Z,18.90
2018-05-23T06:06:50.799Z,18.51
2018-05-23T06:07:50.224Z,19.09
2018-05-23T06:08:50.271Z,18.99
2018-05-23T06:09:50.303Z,18.89
2018-05-23T06:10:50.303Z,18.99
2018-05-23T06:11:51.092Z,18.70
2018-05-23T06:12:50.395Z,18.21
2018-05-23T06:13:50.391Z,18.03
2018-05-23T06:14:50.473Z,17.92
2018-05-23T06:15:50.439Z,18.03
2018-05-23T06:16:50.589Z,17.63
2018-05-23T06:17:50.497Z,16.94
2018-05-23T06:18:50.524Z,17.62
2018-05-23T06:19:50.556Z,18.01
2018-05-23T06:20:50.582Z,17.91
2018-05-23T06:21:50.612Z,17.91
2018-05-23T06:22:50.643Z,17.92
2018-05-23T06:23:50.666Z,17.82
2018-05-23T06:24:50.692Z,17.63
2018-05-23T06:25:50.749Z,17.24
2018-05-23T06:26:50.747Z,16.95
2018-05-23T06:27:50.783Z,17.05
2018-05-23T06:28:50.816Z,17.15
2018-05-23T06:29:50.835Z,17.14
2018-05-23T06:30:50.865Z,17.05
2018-05-23T06:31:50.893Z,16.95
2018-05-23T06:32:50.925Z,17.24
2018-05-23T06:33:50.951Z,17.63
2018-05-23T06:34:50.978Z,17.14
2018-05-23T06:35:51.023Z,17.62
2018-05-23T06:36:51.045Z,17.52
2018-05-23T06:37:51.186Z,17.51
2018-05-23T06:38:51.093Z,17.80
2018-05-23T06:39:51.121Z,18.38
2018-05-23T06:40:51.151Z,18.57
2018-05-23T06:41:51.177Z,18.85
2018-05-23T06:42:51.204Z,18.66
2018-05-23T06:43:51.238Z,18.19
2018-05-23T06:44:51.267Z,17.90
2018-05-23T06:45:51.292Z,18.00
2018-05-23T06:46:51.369Z,18.00
2018-05-23T06:47:51.344Z,17.71
2018-05-23T06:48:51.367Z,17.80
2018-05-23T06:49:51.409Z,18.00
2018-05-23T06:50:51.429Z,18.68
2018-05-23T06:51:51.462Z,18.96
2018-05-23T06:52:51.494Z,19.43
2018-05-23T06:53:51.527Z,20.58
2018-05-23T06:54:51.538Z,20.58
2018-05-23T06:55:51.568Z,20.87
2018-05-23T06:56:51.660Z,21.23
2018-05-23T06:57:51.619Z,22.41
2018-05-23T06:58:51.666Z,22.31
2018-05-23T06:59:51.899Z,22.41
2018-05-23T07:00:51.871Z,22.60
2018-05-23T07:01:51.735Z,22.67
2018-05-23T07:02:51.764Z,23.55
2018-05-23T07:03:51.788Z,23.45
2018-05-23T07:04:51.807Z,23.65
2018-05-23T07:05:51.936Z,23.84
2018-05-23T07:06:51.852Z,24.12
2018-05-23T07:07:51.885Z,24.21
2018-05-23T07:08:51.987Z,24.60
2018-05-23T07:09:51.936Z,24.79
2018-05-23T07:10:51.985Z,24.97
2018-05-23T07:11:52.006Z,25.64
2018-05-23T07:12:52.025Z,25.74
2018-05-23T07:13:52.045Z,26.03
2018-05-23T07:14:52.064Z,26.12
2018-05-23T07:15:52.091Z,26.12
2018-05-23T07:16:52.111Z,26.12
2018-05-23T07:17:52.167Z,26.11
2018-05-23T07:18:52.165Z,26.40
2018-05-23T07:19:52.189Z,26.70
2018-05-23T07:20:52.213Z,26.79
2018-05-23T07:21:52.240Z,26.78
2018-05-23T07:22:52.270Z,27.07
2018-05-23T07:23:52.287Z,27.17
2018-05-23T07:24:52.315Z,27.46
2018-05-23T07:25:52.404Z,27.07
2018-05-23T07:26:52.368Z,27.07
2018-05-23T07:27:52.386Z,27.26
2018-05-23T07:28:52.414Z,27.64
2018-05-23T07:29:52.443Z,27.64
2018-05-23T07:30:52.460Z,27.54
2018-05-23T07:31:52.487Z,27.93
2018-05-23T07:32:52.512Z,27.83
2018-05-23T07:33:52.541Z,27.54
2018-05-23T07:34:52.561Z,27.35
2018-05-23T07:35:52.595Z,27.56
2018-05-23T07:36:52.615Z,27.66
2018-05-23T07:37:52.634Z,27.35
2018-05-23T07:38:52.656Z,27.54
2018-05-23T07:39:52.684Z,28.11
2018-05-23T07:40:52.710Z,28.02
2018-05-23T07:41:52.733Z,28.11
2018-05-23T07:42:52.754Z,27.93
2018-05-23T07:43:52.780Z,28.02
2018-05-23T07:44:52.805Z,28.02
2018-05-23T07:45:52.851Z,27.93
2018-05-23T07:46:52.893Z,28.03
2018-05-23T07:47:52.871Z,27.83
2018-05-23T07:48:52.899Z,27.83
2018-05-23T07:49:52.927Z,27.93
2018-05-23T07:50:52.946Z,28.13
2018-05-23T07:51:52.975Z,28.13
2018-05-23T07:52:52.997Z,28.03
2018-05-23T07:53:53.021Z,28.03
2018-05-23T07:54:53.044Z,28.03
2018-05-23T07:55:53.076Z,28.03
2018-05-23T07:56:53.094Z,28.13
2018-05-23T07:57:53.115Z,28.03
2018-05-23T07:58:53.135Z,27.93
2018-05-23T07:59:53.164Z,27.93
2018-05-23T08:00:53.199Z,27.93
2018-05-23T08:01:53.213Z,28.11
2018-05-23T08:02:53.234Z,28.13
2018-05-23T08:03:53.261Z,28.22
2018-05-23T08:04:53.289Z,28.22
2018-05-23T08:05:53.349Z,28.32
2018-05-23T08:06:53.351Z,27.93
2018-05-23T08:07:53.355Z,28.22
2018-05-23T08:08:53.379Z,28.03
2018-05-23T08:09:53.406Z,28.03
2018-05-23T08:10:53.420Z,27.93
2018-05-23T08:11:53.475Z,28.13
2018-05-23T08:12:53.493Z,28.80
2018-05-23T08:13:53.502Z,27.93
2018-05-23T08:14:53.521Z,28.40
2018-05-23T08:15:53.546Z,28.41
2018-05-23T08:16:53.568Z,28.61
2018-05-23T08:17:53.602Z,28.90
2018-05-23T08:18:53.617Z,29.00
2018-05-23T08:19:53.643Z,29.00
2018-05-23T08:20:53.672Z,28.98
2018-05-23T08:21:53.691Z,29.00
2018-05-23T08:22:53.719Z,28.89
2018-05-23T08:23:53.757Z,29.00
2018-05-23T08:24:53.776Z,29.17
2018-05-23T08:25:53.797Z,29.08
2018-05-23T08:26:53.808Z,29.17
2018-05-23T08:27:53.837Z,29.19
2018-05-23T08:28:53.862Z,29.08
2018-05-23T08:29:53.956Z,29.27
2018-05-23T08:30:53.905Z,29.85
2018-05-23T08:31:53.934Z,29.57
2018-05-23T08:32:53.953Z,29.76
2018-05-23T08:33:53.983Z,29.76
2018-05-23T08:34:54.007Z,29.66
2018-05-23T08:35:54.061Z,29.57
2018-05-23T08:36:54.051Z,29.85
2018-05-23T08:37:54.077Z,29.85
2018-05-23T08:38:54.420Z,29.76
2018-05-23T08:39:54.137Z,29.76
2018-05-23T08:40:54.152Z,29.76
2018-05-23T08:41:54.170Z,29.85
2018-05-23T08:42:54.194Z,30.42
2018-05-23T08:43:54.219Z,30.63
2018-05-23T08:44:54.247Z,30.52
2018-05-23T08:45:54.294Z,30.34
2018-05-23T08:46:54.297Z,30.44
2018-05-23T08:47:54.316Z,30.05
2018-05-23T08:48:54.335Z,30.05
2018-05-23T08:49:54.364Z,30.05
2018-05-23T08:50:54.384Z,30.15
2018-05-23T08:51:54.414Z,30.24
2018-05-23T08:52:54.434Z,30.13
2018-05-23T08:53:54.455Z,30.62
2018-05-23T08:54:54.489Z,30.81
2018-05-23T08:55:54.502Z,30.91
2018-05-23T08:56:54.549Z,30.91
2018-05-23T08:57:54.580Z,31.01
2018-05-23T08:58:54.584Z,30.91
2018-05-23T08:59:54.605Z,30.91
2018-05-23T09:00:54.627Z,30.73
2018-05-23T09:01:54.644Z,31.02
2018-05-23T09:02:54.670Z,30.92
2018-05-23T09:03:54.704Z,31.02
2018-05-23T09:04:54.757Z,31.12
2018-05-23T09:05:54.743Z,30.81
2018-05-23T09:06:54.764Z,30.92
2018-05-23T09:07:54.794Z,30.92
2018-05-23T09:08:54.811Z,30.92
2018-05-23T09:09:54.844Z,30.92
2018-05-23T09:10:54.857Z,30.73
2018-05-23T09:11:54.885Z,30.54
2018-05-23T09:12:55.026Z,30.44
2018-05-23T09:13:54.981Z,30.73
2018-05-23T09:14:55.004Z,30.54
2018-05-23T09:15:54.974Z,30.15
2018-05-23T09:16:55.004Z,30.05
2018-05-23T09:17:55.030Z,30.15
2018-05-23T09:18:55.042Z,30.24
2018-05-23T09:19:55.074Z,30.54
2018-05-23T09:20:55.095Z,30.05
2018-05-23T09:21:55.115Z,30.34
2018-05-23T09:22:55.149Z,30.52
2018-05-23T09:23:55.166Z,30.15
2018-05-23T09:24:55.192Z,30.24
2018-05-23T09:25:55.229Z,30.05
2018-05-23T09:26:55.243Z,30.13
2018-05-23T09:27:55.263Z,30.15
2018-05-23T09:28:55.292Z,30.15
2018-05-23T09:29:55.316Z,30.32
2018-05-23T09:30:55.340Z,30.15
2018-05-23T09:31:55.524Z,30.54
2018-05-23T09:32:55.388Z,30.24
2018-05-23T09:33:55.564Z,30.24
2018-05-23T09:34:56.369Z,30.24
2018-05-23T09:35:55.492Z,30.05
2018-05-23T09:36:55.504Z,30.15
2018-05-23T09:37:55.501Z,30.05
2018-05-23T09:38:55.552Z,30.34
2018-05-23T09:39:55.566Z,30.15
2018-05-23T09:40:55.576Z,30.23
2018-05-23T09:41:55.674Z,30.05
2018-05-23T09:42:55.637Z,29.85
2018-05-23T09:43:55.670Z,29.85
2018-05-23T09:44:55.671Z,29.64
2018-05-23T09:45:55.688Z,29.66
2018-05-23T09:46:55.714Z,29.66
2018-05-23T09:47:55.772Z,29.84
2018-05-23T09:48:55.766Z,29.74
2018-05-23T09:49:55.783Z,29.64
2018-05-23T09:50:55.849Z,29.57
2018-05-23T09:51:55.865Z,29.66
2018-05-23T09:52:56.824Z,29.17
2018-05-23T09:53:55.878Z,28.89
2018-05-23T09:54:55.964Z,28.69
2018-05-23T09:55:55.935Z,28.69
2018-05-23T09:56:55.962Z,28.79
2018-05-23T09:57:55.995Z,28.59
2018-05-23T09:58:57.846Z,28.50
2018-05-23T09:59:56.822Z,28.30
2018-05-23T10:00:56.059Z,28.40
2018-05-23T10:01:56.076Z,28.59
2018-05-23T10:02:56.269Z,28.40
2018-05-23T10:03:56.833Z,28.50
2018-05-23T10:04:56.178Z,28.59
2018-05-23T10:05:56.187Z,28.59
2018-05-23T10:06:56.202Z,28.40
2018-05-23T10:07:56.271Z,28.50
2018-05-23T10:08:56.234Z,28.40
2018-05-23T10:09:56.260Z,28.59
2018-05-23T10:10:56.277Z,28.50
2018-05-23T10:11:56.302Z,28.20
2018-05-23T10:12:56.377Z,28.79
2018-05-23T10:13:56.351Z,28.20
2018-05-23T10:14:56.377Z,28.20
2018-05-23T10:15:56.400Z,28.30
2018-05-23T10:16:56.425Z,28.50
2018-05-23T10:17:56.488Z,28.11
2018-05-23T10:18:56.469Z,28.30
2018-05-23T10:19:56.492Z,28.02
2018-05-23T10:20:56.524Z,28.02
2018-05-23T10:21:56.670Z,28.20
2018-05-23T10:22:56.568Z,27.92
2018-05-23T10:23:56.589Z,28.02
2018-05-23T10:24:56.620Z,28.02
2018-05-23T10:25:56.629Z,28.11
2018-05-23T10:26:56.671Z,27.82
2018-05-23T10:27:56.682Z,28.02
2018-05-23T10:28:56.708Z,28.30
2018-05-23T10:29:56.734Z,28.30
2018-05-23T10:30:56.751Z,28.02
2018-05-23T10:31:56.806Z,27.92
2018-05-23T10:32:56.851Z,27.93
2018-05-23T10:33:56.889Z,27.73
2018-05-23T10:34:56.910Z,27.62
2018-05-23T10:35:56.900Z,27.73
2018-05-23T10:36:56.896Z,27.62
2018-05-23T10:37:56.921Z,27.72
2018-05-23T10:38:56.936Z,27.72
2018-05-23T10:39:56.968Z,27.53
2018-05-23T10:40:56.988Z,27.62
2018-05-23T10:41:57.010Z,27.14
2018-05-23T10:42:57.040Z,26.85
2018-05-23T10:43:57.060Z,26.86
2018-05-23T10:44:57.082Z,26.95
2018-05-23T10:45:57.102Z,26.76
2018-05-23T10:46:57.129Z,26.67
2018-05-23T10:47:57.161Z,26.57
2018-05-23T10:48:57.205Z,26.65
2018-05-23T10:49:57.209Z,26.67
2018-05-23T10:50:57.234Z,26.57
2018-05-23T10:51:57.325Z,26.67
2018-05-23T10:52:57.285Z,26.38
2018-05-23T10:53:57.297Z,26.38
2018-05-23T10:54:57.318Z,26.27
2018-05-23T10:55:57.342Z,26.48
2018-05-23T10:56:57.368Z,26.48
2018-05-23T10:57:57.395Z,26.38
2018-05-23T10:58:57.414Z,26.18
2018-05-23T10:59:57.434Z,25.89
2018-05-23T11:00:57.467Z,25.99
2018-05-23T11:01:57.485Z,26.09
2018-05-23T11:02:57.540Z,25.99
2018-05-23T11:03:57.550Z,26.28
2018-05-23T11:04:57.564Z,26.38
2018-05-23T11:05:57.591Z,26.38
2018-05-23T11:06:57.609Z,25.99
2018-05-23T11:07:57.631Z,25.99
2018-05-23T11:08:57.665Z,25.70
2018-05-23T11:09:57.678Z,25.89
2018-05-23T11:10:57.700Z,25.60
2018-05-23T11:11:57.737Z,25.60
2018-05-23T11:12:57.747Z,25.60
2018-05-23T11:13:57.773Z,25.60
2018-05-23T11:14:57.868Z,25.89
2018-05-23T11:15:57.817Z,26.09
2018-05-23T11:16:57.846Z,25.99
2018-05-23T11:17:57.879Z,25.99
2018-05-23T11:18:57.889Z,26.09
2018-05-23T11:19:57.916Z,25.89
2018-05-23T11:20:57.944Z,25.51
2018-05-23T11:21:57.963Z,25.51
2018-05-23T11:22:57.988Z,25.41
2018-05-23T11:23:58.014Z,24.83
2018-05-23T11:24:58.034Z,25.51
2018-05-23T11:25:58.060Z,25.51
2018-05-23T11:26:58.084Z,26.28
2018-05-23T11:27:58.107Z,26.28
2018-05-23T11:28:58.133Z,26.07
2018-05-23T11:29:58.161Z,26.27
2018-05-23T11:30:58.175Z,26.37
2018-05-23T11:31:58.200Z,26.27
2018-05-23T11:32:58.226Z,26.27
2018-05-23T11:33:58.249Z,26.46
2018-05-23T11:34:58.290Z,26.27
2018-05-23T11:35:58.298Z,26.17
2018-05-23T11:36:58.321Z,25.88
2018-05-23T11:37:58.474Z,26.26
2018-05-23T11:38:58.378Z,26.07
2018-05-23T11:39:58.394Z,26.26
2018-05-23T11:40:58.419Z,26.64
2018-05-23T11:41:58.443Z,26.35
2018-05-23T11:42:58.471Z,26.35
2018-05-23T11:43:58.491Z,26.26
2018-05-23T11:44:58.514Z,26.45
2018-05-23T11:45:58.539Z,26.35
2018-05-23T11:46:58.576Z,26.16
2018-05-23T11:47:58.589Z,26.27
2018-05-23T11:48:58.649Z,26.17
2018-05-23T11:49:58.641Z,25.96
2018-05-23T11:50:58.661Z,25.98
2018-05-23T11:51:58.688Z,26.17
2018-05-23T11:52:58.712Z,26.06
2018-05-23T11:53:58.738Z,25.98
2018-05-23T11:54:58.761Z,26.06
2018-05-23T11:55:58.790Z,26.17
2018-05-23T11:56:58.810Z,26.26
2018-05-23T11:57:58.844Z,26.27
2018-05-23T11:58:58.866Z,26.37
2018-05-23T11:59:58.884Z,26.75
2018-05-23T12:00:58.919Z,26.64
2018-05-23T12:01:58.983Z,26.56
2018-05-23T12:02:58.955Z,26.64
2018-05-23T12:03:58.980Z,26.35
2018-05-23T12:04:59.017Z,26.35
2018-05-23T12:05:59.046Z,26.35
2018-05-23T12:06:59.056Z,26.26
2018-05-23T12:07:59.085Z,26.16
2018-05-23T12:08:59.158Z,26.16
2018-05-23T12:09:59.140Z,26.45
2018-05-23T12:10:59.210Z,26.35
2018-05-23T12:11:59.190Z,26.35
2018-05-23T12:12:59.251Z,26.35
2018-05-23T12:13:59.250Z,26.54
2018-05-23T12:14:59.277Z,26.64
2018-05-23T12:15:59.285Z,26.64
2018-05-23T12:16:59.306Z,26.64
2018-05-23T12:17:59.332Z,26.74
2018-05-23T12:18:59.353Z,26.54
2018-05-23T12:19:59.393Z,26.64
2018-05-23T12:20:59.446Z,26.54
2018-05-23T12:21:59.430Z,26.64
2018-05-23T12:22:59.452Z,26.45
2018-05-23T12:23:59.479Z,26.26
2018-05-23T12:24:59.539Z,26.26
2018-05-23T12:25:59.546Z,26.26
2018-05-23T12:26:59.559Z,26.16
2018-05-23T12:27:59.580Z,26.16
2018-05-23T12:28:59.608Z,26.16
2018-05-23T12:29:59.668Z,26.26
2018-05-23T12:30:59.657Z,26.26
2018-05-23T12:31:59.685Z,26.26
2018-05-23T12:32:59.705Z,26.26
2018-05-23T12:33:59.728Z,26.35
2018-05-23T12:34:59.761Z,26.45
2018-05-23T12:35:59.804Z,26.54
2018-05-23T12:36:59.801Z,26.54
2018-05-23T12:37:59.828Z,26.26
2018-05-23T12:38:59.864Z,26.35
2018-05-23T12:39:59.873Z,26.35
2018-05-23T12:40:59.969Z,26.26
2018-05-23T12:41:59.931Z,26.35
2018-05-23T12:42:59.948Z,26.26
2018-05-23T12:44:00.074Z,26.26
2018-05-23T12:45:00.013Z,26.06
2018-05-23T12:46:00.023Z,26.06
2018-05-23T12:47:00.049Z,25.96
2018-05-23T12:48:00.073Z,25.87
2018-05-23T12:49:00.095Z,25.77
2018-05-23T12:50:00.120Z,25.58
2018-05-23T12:51:00.145Z,25.38
2018-05-23T12:52:00.180Z,25.47
2018-05-23T12:53:00.225Z,25.58